Terminal Aerodrome Forecast
Issued by NWS Melbourne, FL

Home | Current Version | Previous Version | Text Only | Print | Product List | Glossary On
Versions: 1 2 3 4 5 6 7 8 9 10 11 12 13 14 15 16 17 18 19 20 21 22 23 24 25 26 27
749
FTUS42 KMLB 240257 AAA
TAFMCO
TAF AMD
KMCO 240257Z 2403/2424 11003KT P6SM FEW018 BKN190 OVC300
     FM241400 22006KT P6SM SCT025 BKN200
     FM241700 22008KT P6SM VCTS SCT040CB BKN120=

USA.gov is the U.S. government's official web portal to all federal, state and local government web resources and services.